Current | Forecast
Updated: 2:30 AM CEST on May 28, 2017
Observed at Asturias, Spain
Temperature 15°C
Humidity 100%
Dew Point 15°C
Wind North at 0 km/h
Pressure 1014 hPa (Steady)
Conditions Overcast
Visibility 2.5 kilometers
UV 0 out of 16
Clouds Overcast (OVC) : 121 m
Yesterday's Maximum 19°C
Yesterday's Minimum 13°C approx.
Yesterday's Heating Degree Days 4 approx.
Sunrise6:45 AM CEST
Sunset9:50 PM CEST
Moon Rise9:33 AM CEST
Moon Set
Moon PhaseMoon Phase
Waxing Crescent
Raw METARMETAR LEAS 280030Z 00000KT 2500 BR OVC004 15/15 Q1014 TEMPO 0800 BCFG


Monday
. High: 69° F.
Tuesday
. High: 75° F.
Wednesday
. High: 59° F.
Thursday
. High: 60° F.
Friday
. High: 71° F.
Saturday
. High: 68° F.
Sunday
. High: 66° F.
Monday
. High: 75° F.

Click here for Marine Information
Scientific forecaster discussion (NWS)

Units: English | Metric

Find the Weather for any City, State or Zipcode, or Country:

U.S. State List | Severe Weather | Tropical Storms | Ski Conditions
United States | Canada | Central America | South America | Asia | Europe | Australia | Africa | Islands

Weather Underground

© Copyright 2017
The Weather Company, LLC